Time;durP1;ratioP1;P1;durP2;ratioP2;P2;SDS_P1;SDS_P2;PMS_P1;PMS_P2;Temp;Humidity;BMP_temperature;BMP_pressure;BME280_temperature;BME280_humidity;BME280_pressure;Samples;Min_cycle;Max_cycle;Signal;HPM_P1;HPM_P2
2022/07/17 00:01:33;;;;;;;5.20;2.22;;;13.30;99.90;;;;;;5072817;28;20510;-68
2022/07/17 00:04:02;;;;;;;7.72;2.20;;;13.20;99.90;;;;;;5057834;28;20467;-68
2022/07/17 00:06:29;;;;;;;7.35;2.10;;;13.20;99.90;;;;;;5053709;28;20087;-67
2022/07/17 00:08:54;;;;;;;7.88;1.92;;;13.20;99.90;;;;;;5050437;28;20045;-69
2022/07/17 00:11:21;;;;;;;7.18;2.10;;;13.10;99.90;;;;;;5071345;28;20475;-67
2022/07/17 00:13:47;;;;;;;6.50;1.90;;;13.10;99.90;;;;;;5072734;28;20064;-68
2022/07/17 00:16:15;;;;;;;8.50;2.33;;;13.10;99.90;;;;;;5072638;28;20094;-66
2022/07/17 00:18:41;;;;;;;6.80;2.42;;;13.10;99.90;;;;;;5063017;28;20041;-67
2022/07/17 00:21:07;;;;;;;6.28;2.55;;;13.10;99.90;;;;;;5047479;28;20056;-68
2022/07/17 00:23:33;;;;;;;8.93;2.80;;;13.00;99.90;;;;;;5053835;28;20041;-68
2022/07/17 00:25:58;;;;;;;7.35;2.33;;;13.00;99.90;;;;;;5068042;28;20616;-66
2022/07/17 00:28:25;;;;;;;8.00;2.78;;;13.00;99.90;;;;;;5061800;28;20040;-68
2022/07/17 00:30:51;;;;;;;6.88;2.70;;;13.00;99.90;;;;;;5073643;28;20135;-68
2022/07/17 00:33:16;;;;;;;5.72;2.40;;;12.90;99.90;;;;;;5071020;28;20175;-68
2022/07/17 00:35:42;;;;;;;10.52;2.70;;;12.90;99.90;;;;;;5058786;28;20041;-68
2022/07/17 00:38:08;;;;;;;8.93;2.40;;;12.90;99.90;;;;;;5079325;28;20045;-67
2022/07/17 00:40:33;;;;;;;7.28;2.35;;;12.90;99.90;;;;;;5067352;28;20087;-68
2022/07/17 00:42:59;;;;;;;10.73;3.08;;;12.90;99.90;;;;;;5071021;28;20040;-67
2022/07/17 00:45:25;;;;;;;8.85;2.50;;;12.80;99.90;;;;;;5066216;28;20088;-67
2022/07/17 00:47:59;;;;;;;7.53;2.50;;;12.90;99.90;;;;;;5053358;28;20041;-67
2022/07/17 00:50:45;;;;;;;9.65;2.90;;;12.80;99.90;;;;;;5072922;28;20094;-68
2022/07/17 00:53:10;;;;;;;7.93;2.50;;;12.80;99.90;;;;;;5071791;28;20044;-68
2022/07/17 00:55:40;;;;;;;8.70;2.58;;;12.70;99.90;;;;;;5071853;28;20039;-68
2022/07/17 00:58:10;;;;;;;6.13;2.20;;;12.70;99.90;;;;;;5070341;28;20190;-67
2022/07/17 01:00:36;;;;;;;8.57;2.73;;;12.70;99.90;;;;;;5068234;28;20044;-68
2022/07/17 01:03:03;;;;;;;6.82;2.28;;;12.70;99.90;;;;;;5052547;28;20279;-68
2022/07/17 01:05:32;;;;;;;7.22;2.80;;;12.70;99.90;;;;;;5069911;28;20045;-67
2022/07/17 01:07:57;;;;;;;9.25;2.60;;;12.70;99.90;;;;;;5045608;28;20179;-68
2022/07/17 01:10:23;;;;;;;7.68;2.97;;;12.70;99.90;;;;;;5055844;28;20052;-68
2022/07/17 01:12:49;;;;;;;10.48;3.10;;;12.70;99.90;;;;;;5050608;28;20068;-67
2022/07/17 01:15:15;;;;;;;6.88;2.60;;;12.70;99.90;;;;;;5053111;28;20125;-68
2022/07/17 01:17:45;;;;;;;6.97;2.70;;;12.60;99.90;;;;;;5052721;28;20497;-68
2022/07/17 01:20:11;;;;;;;8.77;2.65;;;12.60;99.90;;;;;;5063293;28;20053;-67
2022/07/17 01:22:46;;;;;;;12.02;2.90;;;12.60;99.90;;;;;;5061273;28;20048;-69
2022/07/17 01:25:12;;;;;;;7.28;2.80;;;12.60;99.90;;;;;;5052103;28;20083;-67
2022/07/17 01:27:38;;;;;;;6.47;3.30;;;12.50;99.90;;;;;;5070046;28;20047;-67
2022/07/17 01:30:05;;;;;;;7.05;3.22;;;12.60;99.90;;;;;;5072180;28;20399;-68
2022/07/17 01:32:36;;;;;;;8.10;3.22;;;12.50;99.90;;;;;;5071364;28;20437;-68
2022/07/17 01:35:03;;;;;;;7.50;2.70;;;12.50;99.90;;;;;;5067408;28;20509;-67
2022/07/17 01:37:29;;;;;;;12.23;3.08;;;12.50;99.90;;;;;;5054589;28;20128;-67
2022/07/17 01:39:56;;;;;;;6.18;2.80;;;12.50;99.90;;;;;;5072244;28;20370;-67
2022/07/17 01:42:23;;;;;;;9.63;3.10;;;12.50;99.90;;;;;;5058895;28;20376;-67
2022/07/17 01:44:50;;;;;;;12.52;3.20;;;12.80;99.90;;;;;;5058888;28;20040;-69
2022/07/17 01:47:19;;;;;;;9.70;3.03;;;12.50;99.90;;;;;;5051234;28;20178;-68
2022/07/17 01:49:47;;;;;;;8.10;2.92;;;12.50;99.90;;;;;;5068202;28;20064;-67
2022/07/17 01:52:13;;;;;;;15.20;3.30;;;12.50;99.90;;;;;;5071069;28;20561;-67
2022/07/17 01:54:40;;;;;;;8.68;3.10;;;12.50;99.90;;;;;;5072403;28;20115;-68
2022/07/17 01:57:06;;;;;;;8.98;3.10;;;12.40;99.90;;;;;;5070892;28;20044;-67
2022/07/17 01:59:31;;;;;;;11.57;3.25;;;12.40;99.90;;;;;;5070286;28;20059;-68
2022/07/17 02:02:00;;;;;;;9.80;3.90;;;12.40;99.90;;;;;;5068560;28;20037;-68
2022/07/17 02:04:26;;;;;;;14.38;4.07;;;12.40;99.90;;;;;;5062592;28;20049;-68
2022/07/17 02:06:54;;;;;;;9.98;4.05;;;12.40;99.90;;;;;;5071757;28;20052;-69
2022/07/17 02:09:21;;;;;;;8.98;3.10;;;12.40;99.90;;;;;;5070329;28;20032;-68
2022/07/17 02:11:47;;;;;;;13.15;3.42;;;12.40;99.90;;;;;;5070606;28;20040;-68
2022/07/17 02:14:13;;;;;;;7.82;2.60;;;12.40;99.90;;;;;;5059050;28;20052;-68
2022/07/17 02:16:38;;;;;;;7.00;3.00;;;12.40;99.90;;;;;;5070476;28;20044;-67
2022/07/17 02:19:04;;;;;;;8.45;2.35;;;12.40;99.90;;;;;;5066249;28;20044;-68
2022/07/17 02:21:30;;;;;;;7.03;2.70;;;12.40;99.90;;;;;;5065030;28;20051;-69
2022/07/17 02:23:56;;;;;;;10.23;2.70;;;12.40;99.90;;;;;;5065642;28;20102;-68
2022/07/17 02:26:22;;;;;;;5.55;2.60;;;12.50;99.90;;;;;;5075716;28;20040;-68
2022/07/17 02:28:48;;;;;;;7.32;2.50;;;12.50;99.90;;;;;;5068893;28;20048;-68
2022/07/17 02:31:13;;;;;;;9.63;2.50;;;12.40;99.90;;;;;;5069507;28;20041;-69
2022/07/17 02:33:42;;;;;;;8.07;2.97;;;12.40;99.90;;;;;;5069215;28;20158;-69
2022/07/17 02:36:08;;;;;;;10.98;3.20;;;12.40;99.90;;;;;;5069802;28;20050;-67
2022/07/17 02:38:34;;;;;;;8.32;2.80;;;12.40;99.90;;;;;;5072090;28;20453;-67
2022/07/17 02:41:00;;;;;;;7.93;2.88;;;12.40;99.90;;;;;;5073798;28;20044;-68
2022/07/17 02:43:25;;;;;;;8.05;2.72;;;12.30;99.90;;;;;;5056795;28;20107;-68
2022/07/17 02:45:51;;;;;;;7.15;2.60;;;12.30;99.90;;;;;;5069776;28;20045;-68
2022/07/17 02:48:17;;;;;;;12.05;3.00;;;12.30;99.90;;;;;;5054614;28;20059;-68
2022/07/17 02:50:42;;;;;;;7.38;3.50;;;12.30;99.90;;;;;;5074548;28;20086;-67
2022/07/17 02:53:08;;;;;;;10.10;4.03;;;12.30;99.90;;;;;;5070670;28;20203;-68
2022/07/17 02:55:37;;;;;;;9.25;3.80;;;12.20;99.90;;;;;;5057889;28;20276;-67
2022/07/17 02:58:03;;;;;;;9.68;4.00;;;12.20;99.90;;;;;;5073583;28;20072;-69
2022/07/17 03:00:29;;;;;;;11.60;3.80;;;12.20;99.90;;;;;;5072794;28;20121;-68
2022/07/17 03:02:55;;;;;;;15.65;3.90;;;12.20;99.90;;;;;;5060002;28;20045;-68
2022/07/17 03:05:21;;;;;;;11.65;3.90;;;12.20;99.90;;;;;;5026719;28;20461;-68
2022/07/17 03:07:47;;;;;;;9.60;3.90;;;12.20;99.90;;;;;;5054794;28;20055;-68
2022/07/17 03:10:15;;;;;;;8.38;3.42;;;12.20;99.90;;;;;;5059658;28;20139;-68
2022/07/17 03:12:41;;;;;;;13.38;3.83;;;12.20;99.90;;;;;;5077553;28;20043;-68
2022/07/17 03:15:07;;;;;;;8.10;3.40;;;12.20;99.90;;;;;;5081362;28;20036;-68
2022/07/17 03:17:33;;;;;;;6.07;2.90;;;12.20;99.90;;;;;;5071122;28;20044;-69
2022/07/17 03:19:59;;;;;;;6.93;2.75;;;12.10;99.90;;;;;;5065527;28;20032;-69
2022/07/17 03:22:25;;;;;;;5.95;2.38;;;12.20;99.90;;;;;;5075309;28;20410;-68
2022/07/17 03:24:51;;;;;;;11.30;3.03;;;12.20;99.90;;;;;;5074599;28;20088;-67
2022/07/17 03:27:17;;;;;;;8.48;2.63;;;12.10;99.90;;;;;;5069046;28;20037;-68
2022/07/17 03:29:43;;;;;;;7.75;2.60;;;12.30;99.90;;;;;;5073824;28;20029;-68
2022/07/17 03:32:12;;;;;;;6.53;2.50;;;12.20;99.90;;;;;;5074959;28;20132;-68
2022/07/17 03:34:38;;;;;;;6.88;2.45;;;12.20;99.90;;;;;;5072092;28;20040;-67
2022/07/17 03:37:04;;;;;;;9.55;2.63;;;12.10;99.90;;;;;;5056047;28;20055;-67
2022/07/17 03:39:30;;;;;;;10.05;2.80;;;12.20;99.90;;;;;;5055023;28;20041;-67
2022/07/17 03:41:56;;;;;;;11.32;3.40;;;12.10;99.90;;;;;;5053711;28;20449;-68
2022/07/17 03:44:22;;;;;;;9.70;3.30;;;12.20;99.90;;;;;;5068376;28;20036;-67
2022/07/17 03:46:48;;;;;;;9.65;3.28;;;12.20;99.90;;;;;;5066307;28;20156;-68
2022/07/17 03:49:17;;;;;;;5.28;2.30;;;12.20;99.90;;;;;;5063545;28;20111;-68
2022/07/17 03:51:42;;;;;;;9.23;2.95;;;12.30;99.90;;;;;;5062862;28;20520;-67
2022/07/17 03:54:08;;;;;;;6.78;2.55;;;12.30;99.90;;;;;;5054552;28;20082;-68
2022/07/17 03:56:34;;;;;;;6.82;2.70;;;12.30;99.90;;;;;;5059657;28;20135;-67
2022/07/17 03:59:00;;;;;;;7.13;2.55;;;12.30;99.90;;;;;;5073124;28;20040;-68
2022/07/17 04:01:26;;;;;;;4.60;2.95;;;12.50;99.90;;;;;;5059151;28;20041;-68
2022/07/17 04:03:51;;;;;;;7.47;3.00;;;12.40;99.90;;;;;;5058890;28;20049;-68
2022/07/17 04:06:17;;;;;;;6.68;2.97;;;12.50;99.90;;;;;;5072987;28;20040;-68
2022/07/17 04:08:43;;;;;;;6.75;2.33;;;12.50;99.90;;;;;;5073690;28;20051;-68
2022/07/17 04:11:12;;;;;;;9.48;3.15;;;12.50;99.90;;;;;;5073574;28;20417;-68
2022/07/17 04:13:38;;;;;;;8.77;2.78;;;12.60;99.90;;;;;;5072725;28;20158;-70
2022/07/17 04:16:06;;;;;;;4.35;2.40;;;12.70;99.90;;;;;;5071135;28;20078;-68
2022/07/17 04:18:36;;;;;;;14.80;3.45;;;12.70;99.90;;;;;;5065549;28;20037;-68
2022/07/17 04:21:05;;;;;;;7.50;2.80;;;12.70;99.90;;;;;;5054037;28;20051;-68
2022/07/17 04:23:31;;;;;;;8.02;2.40;;;12.70;99.90;;;;;;5053804;28;20052;-68
2022/07/17 04:25:57;;;;;;;6.90;2.30;;;12.80;99.90;;;;;;5072687;28;20051;-68
2022/07/17 04:28:23;;;;;;;6.82;2.67;;;12.90;99.90;;;;;;5038764;28;20101;-67
2022/07/17 04:30:49;;;;;;;7.60;2.60;;;12.90;99.90;;;;;;5069492;28;20045;-67
2022/07/17 04:33:16;;;;;;;7.93;2.75;;;13.00;99.90;;;;;;5073295;28;20044;-68
2022/07/17 04:35:44;;;;;;;12.30;3.30;;;13.00;99.90;;;;;;5061742;28;20120;-68
2022/07/17 04:38:10;;;;;;;10.45;3.00;;;13.00;99.90;;;;;;5054272;28;20083;-68
2022/07/17 04:40:41;;;;;;;12.82;2.83;;;13.00;99.90;;;;;;5054374;28;20045;-68
2022/07/17 04:43:07;;;;;;;7.97;2.28;;;13.10;99.90;;;;;;5072741;28;20044;-67
2022/07/17 04:45:33;;;;;;;5.97;2.17;;;13.20;99.90;;;;;;5057810;28;20045;-67
2022/07/17 04:47:58;;;;;;;8.25;2.83;;;13.20;99.90;;;;;;5051685;28;20069;-68
2022/07/17 04:50:27;;;;;;;4.60;2.45;;;13.20;99.90;;;;;;5059867;28;20047;-68
2022/07/17 04:52:53;;;;;;;9.88;2.92;;;13.30;99.90;;;;;;5052744;28;20120;-67
2022/07/17 04:55:19;;;;;;;10.90;2.50;;;13.30;99.90;;;;;;5053131;28;20049;-69
2022/07/17 04:57:44;;;;;;;8.82;3.00;;;13.30;99.90;;;;;;5069938;28;20052;-67
2022/07/17 05:00:11;;;;;;;5.90;2.38;;;13.30;99.90;;;;;;5072749;28;20105;-68
2022/07/17 05:02:37;;;;;;;8.70;2.30;;;13.40;99.90;;;;;;5066689;28;20075;-68
2022/07/17 05:05:06;;;;;;;8.60;2.47;;;13.40;99.90;;;;;;5061218;28;20040;-66
2022/07/17 05:07:31;;;;;;;9.48;2.63;;;13.40;99.90;;;;;;5070663;28;20058;-68
2022/07/17 05:09:57;;;;;;;7.63;2.17;;;13.50;99.90;;;;;;5061254;28;20044;-69
2022/07/17 05:12:26;;;;;;;7.38;2.47;;;13.50;99.90;;;;;;5058498;28;20040;-67
2022/07/17 05:14:51;;;;;;;7.95;2.40;;;13.50;99.90;;;;;;5072335;28;20045;-68
2022/07/17 05:17:17;;;;;;;7.18;2.45;;;13.50;99.90;;;;;;5069086;28;20479;-68
2022/07/17 05:19:43;;;;;;;9.88;2.15;;;13.50;99.90;;;;;;5067002;28;20037;-67
2022/07/17 05:22:09;;;;;;;6.47;2.08;;;13.60;99.90;;;;;;5052804;28;20037;-68
2022/07/17 05:24:38;;;;;;;7.82;2.67;;;13.60;99.90;;;;;;5066836;28;20525;-68
2022/07/17 05:27:03;;;;;;;5.05;2.05;;;13.60;99.90;;;;;;5059872;28;20107;-68
2022/07/17 05:29:29;;;;;;;7.07;2.05;;;13.60;99.90;;;;;;5055519;28;20040;-68
2022/07/17 05:31:55;;;;;;;6.10;1.88;;;13.70;99.90;;;;;;5069981;28;20036;-69
2022/07/17 05:34:23;;;;;;;10.57;2.13;;;13.80;99.90;;;;;;5072589;28;20109;-67
2022/07/17 05:36:49;;;;;;;6.82;2.33;;;13.80;99.90;;;;;;5048602;28;20044;-69
2022/07/17 05:39:14;;;;;;;7.07;2.15;;;13.80;99.90;;;;;;5071821;28;20050;-68
2022/07/17 05:41:40;;;;;;;8.25;2.38;;;13.90;99.90;;;;;;5068406;28;20037;-67
2022/07/17 05:44:06;;;;;;;7.03;2.00;;;13.90;99.90;;;;;;5059864;28;20052;-68
2022/07/17 05:46:32;;;;;;;5.50;1.98;;;14.00;99.90;;;;;;5053755;28;20068;-68
2022/07/17 05:48:57;;;;;;;7.47;2.17;;;14.10;99.90;;;;;;5072635;28;20414;-68
2022/07/17 05:51:23;;;;;;;7.18;1.67;;;14.20;99.90;;;;;;5071246;28;20044;-68
2022/07/17 05:53:49;;;;;;;9.05;2.13;;;14.30;99.90;;;;;;5071071;28;20478;-68
2022/07/17 05:56:14;;;;;;;4.93;1.98;;;14.30;99.90;;;;;;5071910;28;20080;-68
2022/07/17 05:58:40;;;;;;;7.43;2.08;;;14.40;99.90;;;;;;5072484;28;20101;-69
2022/07/17 06:01:07;;;;;;;9.02;2.00;;;14.50;99.90;;;;;;5071123;28;20513;-67
2022/07/17 06:03:33;;;;;;;4.97;2.08;;;14.60;99.90;;;;;;5069149;28;20041;-68
2022/07/17 06:05:58;;;;;;;3.33;1.52;;;14.70;99.90;;;;;;5052933;28;20056;-67
2022/07/17 06:08:24;;;;;;;6.75;1.67;;;14.70;99.90;;;;;;5072288;28;20055;-68
2022/07/17 06:10:50;;;;;;;5.50;1.83;;;14.90;99.90;;;;;;5062255;28;20102;-67
2022/07/17 06:13:15;;;;;;;9.02;2.25;;;14.80;99.90;;;;;;5067006;28;20079;-67
2022/07/17 06:15:41;;;;;;;4.47;1.42;;;15.00;99.90;;;;;;5054220;28;20044;-67
2022/07/17 06:18:07;;;;;;;13.00;2.00;;;15.10;99.90;;;;;;5068681;28;20040;-67
2022/07/17 06:20:33;;;;;;;9.50;2.15;;;15.10;99.90;;;;;;5056638;28;20029;-67
2022/07/17 06:22:58;;;;;;;11.60;2.45;;;15.40;99.90;;;;;;5070770;28;20119;-67
2022/07/17 06:25:24;;;;;;;5.10;1.70;;;15.60;99.90;;;;;;5067408;28;20040;-69
2022/07/17 06:27:50;;;;;;;7.82;2.00;;;15.70;99.90;;;;;;5072104;28;20055;-66
2022/07/17 06:30:16;;;;;;;11.65;2.72;;;15.80;99.90;;;;;;5069969;28;20456;-67
2022/07/17 06:32:42;;;;;;;11.55;2.10;;;15.90;99.90;;;;;;5069538;28;20111;-68
2022/07/17 06:35:11;;;;;;;8.93;2.20;;;16.10;99.90;;;;;;5057421;28;20048;-67
2022/07/17 06:37:37;;;;;;;7.28;1.70;;;16.20;99.90;;;;;;5050591;28;20049;-67
2022/07/17 06:40:04;;;;;;;9.45;2.17;;;16.30;99.90;;;;;;5054748;28;20048;-68
2022/07/17 06:42:30;;;;;;;9.05;2.15;;;16.30;99.90;;;;;;5070012;28;20052;-66
2022/07/17 06:44:56;;;;;;;9.40;2.10;;;16.30;99.90;;;;;;5072244;28;20037;-67
2022/07/17 06:47:21;;;;;;;8.50;1.88;;;16.30;99.90;;;;;;5069966;28;20048;-67
2022/07/17 06:49:50;;;;;;;9.05;1.80;;;16.40;99.90;;;;;;5056697;28;20041;-66
2022/07/17 06:52:18;;;;;;;8.20;1.92;;;16.30;99.90;;;;;;5067421;28;20074;-68
2022/07/17 06:54:44;;;;;;;6.78;1.90;;;16.30;99.90;;;;;;5072086;28;20048;-68
2022/07/17 06:57:12;;;;;;;7.75;1.60;;;16.30;99.90;;;;;;5059592;28;20049;-68
2022/07/17 06:59:38;;;;;;;8.13;1.85;;;16.30;99.90;;;;;;5051691;28;20045;-69
2022/07/17 07:02:04;;;;;;;5.85;1.70;;;16.30;99.90;;;;;;5066505;28;20056;-68
2022/07/17 07:04:30;;;;;;;12.80;1.98;;;16.30;99.90;;;;;;5065397;28;20045;-66
2022/07/17 07:06:55;;;;;;;9.00;1.77;;;16.30;99.90;;;;;;5063768;28;20056;-66
2022/07/17 07:09:21;;;;;;;8.48;1.73;;;16.40;99.90;;;;;;5051135;28;20057;-68
2022/07/17 07:11:47;;;;;;;8.85;2.22;;;16.40;99.90;;;;;;5067092;28;20049;-68
2022/07/17 07:14:13;;;;;;;11.85;2.65;;;16.40;99.90;;;;;;5065461;28;20093;-67
2022/07/17 07:16:41;;;;;;;8.57;1.65;;;16.40;99.90;;;;;;5070627;28;20040;-68
2022/07/17 07:19:07;;;;;;;8.20;2.05;;;16.50;99.90;;;;;;5064821;28;20048;-68
2022/07/17 07:21:33;;;;;;;11.38;2.15;;;16.50;99.90;;;;;;5070680;28;20489;-69
2022/07/17 07:23:58;;;;;;;12.55;2.35;;;16.60;99.90;;;;;;5070132;28;20152;-69
2022/07/17 07:26:24;;;;;;;7.07;1.88;;;16.70;99.90;;;;;;5058519;28;20041;-68
2022/07/17 07:28:50;;;;;;;5.60;1.63;;;16.70;99.90;;;;;;5066326;28;20052;-68
2022/07/17 07:31:18;;;;;;;9.57;2.30;;;16.70;99.90;;;;;;5074266;28;20371;-68
2022/07/17 07:33:47;;;;;;;7.30;1.75;;;16.60;99.90;;;;;;5072608;28;20406;-68
2022/07/17 07:36:13;;;;;;;7.05;2.10;;;16.80;99.90;;;;;;5072620;28;20119;-68
2022/07/17 07:38:41;;;;;;;6.18;1.83;;;16.90;99.90;;;;;;5070068;28;20133;-68
2022/07/17 07:41:07;;;;;;;6.97;2.38;;;16.90;99.90;;;;;;5054935;28;20036;-68
2022/07/17 07:43:35;;;;;;;9.82;2.47;;;17.10;99.90;;;;;;5069552;28;20094;-68
2022/07/17 07:46:03;;;;;;;10.75;1.85;;;17.00;99.90;;;;;;5068235;28;20179;-67
2022/07/17 07:48:28;;;;;;;6.75;1.80;;;17.10;99.90;;;;;;5053487;28;20086;-68
2022/07/17 07:50:57;;;;;;;7.75;1.92;;;17.20;99.90;;;;;;5060440;28;20087;-68
2022/07/17 07:53:22;;;;;;;7.85;1.80;;;17.30;99.90;;;;;;5053452;28;20128;-69
2022/07/17 07:55:51;;;;;;;9.13;2.20;;;17.30;99.90;;;;;;5054802;28;20148;-67
2022/07/17 07:58:18;;;;;;;5.78;1.55;;;17.40;99.90;;;;;;5054562;28;20045;-67
2022/07/17 08:00:44;;;;;;;5.78;1.80;;;17.40;99.90;;;;;;5070449;28;20056;-67
2022/07/17 08:03:10;;;;;;;3.80;1.25;;;17.50;99.90;;;;;;5036650;28;20080;-68
2022/07/17 08:05:36;;;;;;;4.47;1.38;;;17.50;99.90;;;;;;5072722;28;20068;-66
2022/07/17 08:08:02;;;;;;;7.55;2.17;;;17.50;99.90;;;;;;5072930;28;20334;-67
2022/07/17 08:10:28;;;;;;;9.43;1.88;;;17.50;99.90;;;;;;5063318;28;20119;-67
2022/07/17 08:12:54;;;;;;;12.05;2.15;;;17.60;99.90;;;;;;5057326;28;20490;-69
2022/07/17 08:15:21;;;;;;;8.25;1.50;;;17.80;99.90;;;;;;5073659;28;20044;-68
2022/07/17 08:17:49;;;;;;;4.45;1.65;;;18.20;99.90;;;;;;5073213;28;20048;-68
2022/07/17 08:20:15;;;;;;;;;;;18.30;99.90;;;;;;5070816;28;20075;-67
2022/07/17 08:22:45;;;;;;;6.65;1.60;;;18.50;99.90;;;;;;5069517;28;19921;-68
2022/07/17 08:25:11;;;;;;;7.10;1.95;;;18.70;99.90;;;;;;5073476;28;20047;-68
2022/07/17 08:27:38;;;;;;;8.48;2.25;;;18.80;99.90;;;;;;5073763;28;20505;-67
2022/07/17 08:30:06;;;;;;;8.60;1.83;;;18.90;99.90;;;;;;5073930;28;20243;-68
2022/07/17 08:32:31;;;;;;;10.32;2.00;;;19.00;99.90;;;;;;5071628;28;20299;-67
2022/07/17 08:34:57;;;;;;;6.60;1.80;;;19.10;99.90;;;;;;5053975;28;20037;-67
2022/07/17 08:37:24;;;;;;;5.63;1.80;;;19.30;99.90;;;;;;5055818;28;20086;-67
2022/07/17 08:39:50;;;;;;;8.38;1.95;;;19.40;99.90;;;;;;5053904;28;20049;-67
2022/07/17 08:42:16;;;;;;;4.75;1.52;;;19.50;99.90;;;;;;5069636;28;20033;-68
2022/07/17 08:44:45;;;;;;;6.53;1.48;;;19.60;99.90;;;;;;5072370;28;20051;-67
2022/07/17 08:47:13;;;;;;;8.18;1.83;;;19.70;99.90;;;;;;5070839;28;20048;-68
2022/07/17 08:49:49;;;;;;;7.40;2.25;;;19.70;99.90;;;;;;5049545;28;20744;-67
2022/07/17 08:52:15;;;;;;;7.53;1.83;;;19.80;99.90;;;;;;5060839;28;20140;-66
2022/07/17 08:54:41;;;;;;;6.15;1.60;;;19.90;99.90;;;;;;5073438;28;20082;-68
2022/07/17 08:57:07;;;;;;;10.68;2.00;;;20.00;99.90;;;;;;5060610;28;20128;-67
2022/07/17 08:59:33;;;;;;;6.40;1.52;;;20.10;99.90;;;;;;5053766;28;20033;-69
2022/07/17 09:01:59;;;;;;;6.10;1.73;;;20.10;99.40;;;;;;5058906;28;20478;-68
2022/07/17 09:04:25;;;;;;;6.20;1.90;;;20.10;99.60;;;;;;5069085;28;20036;-67
2022/07/17 09:07:01;;;;;;;12.55;2.13;;;20.20;99.70;;;;;;5071856;28;20102;-67
2022/07/17 09:09:31;;;;;;;7.13;1.58;;;20.40;99.80;;;;;;5072431;28;20044;-66
2022/07/17 09:12:04;;;;;;;11.25;1.80;;;20.60;99.80;;;;;;5062986;28;20036;-67
2022/07/17 09:14:41;;;;;;;6.55;2.03;;;20.80;99.60;;;;;;5053339;28;20048;-66
2022/07/17 09:17:10;;;;;;;10.77;1.73;;;20.80;98.40;;;;;;5063200;28;20041;-67
2022/07/17 09:19:39;;;;;;;8.57;1.70;;;21.00;98.80;;;;;;5056598;28;20106;-67
2022/07/17 09:22:07;;;;;;;3.85;1.55;;;21.10;98.40;;;;;;5074241;28;20399;-68
2022/07/17 09:24:42;;;;;;;6.57;2.03;;;21.20;98.30;;;;;;5068467;28;20044;-69
2022/07/17 09:27:13;;;;;;;6.50;1.50;;;21.30;98.00;;;;;;5070842;28;20520;-68
2022/07/17 09:30:09;;;;;;;3.65;1.50;;;21.40;96.90;;;;;;5068998;28;20052;-67
2022/07/17 09:32:38;;;;;;;4.15;1.45;;;21.40;95.60;;;;;;5072531;28;20072;-67
2022/07/17 09:35:06;;;;;;;7.15;1.73;;;21.30;96.80;;;;;;5071054;28;20138;-67
2022/07/17 09:37:33;;;;;;;4.30;1.48;;;21.30;96.90;;;;;;5072331;28;20040;-67
2022/07/17 09:40:00;;;;;;;4.97;1.80;;;21.50;97.10;;;;;;5072864;28;20089;-67
2022/07/17 09:42:33;;;;;;;5.93;1.98;;;21.60;95.60;;;;;;5052129;28;20079;-69
2022/07/17 09:45:01;;;;;;;7.55;2.05;;;21.70;94.90;;;;;;5050364;28;20052;-68
2022/07/17 09:47:29;;;;;;;3.05;1.52;;;21.70;95.20;;;;;;5053710;28;20072;-68
2022/07/17 09:49:56;;;;;;;4.50;1.58;;;21.60;94.50;;;;;;5055235;28;20041;-68
2022/07/17 09:52:25;;;;;;;5.50;1.90;;;21.60;94.90;;;;;;5054059;28;20079;-69
2022/07/17 09:54:55;;;;;;;5.05;2.10;;;21.60;93.50;;;;;;5071009;28;20103;-68
2022/07/17 09:57:28;;;;;;;6.55;1.60;;;21.40;93.30;;;;;;5059825;28;20441;-68
2022/07/17 09:59:58;;;;;;;3.40;1.60;;;21.30;93.10;;;;;;5071061;28;20044;-66
2022/07/17 10:02:26;;;;;;;4.70;1.50;;;21.00;93.50;;;;;;5070179;28;20045;-68
2022/07/17 10:04:53;;;;;;;6.10;1.63;;;21.00;94.60;;;;;;5066748;28;20049;-67
2022/07/17 10:07:20;;;;;;;6.63;1.70;;;21.20;95.00;;;;;;5067158;28;20178;-68
2022/07/17 10:09:46;;;;;;;6.50;1.80;;;21.40;94.70;;;;;;5069350;28;20059;-66
2022/07/17 10:12:13;;;;;;;7.20;1.88;;;21.60;94.90;;;;;;5070398;28;20671;-67
2022/07/17 10:14:41;;;;;;;3.83;1.40;;;21.80;95.20;;;;;;5069902;28;20101;-68
2022/07/17 10:17:14;;;;;;;5.20;1.73;;;22.10;95.30;;;;;;5052607;28;20380;-68
2022/07/17 10:20:06;;;;;;;4.78;2.28;;;22.40;94.10;;;;;;5064227;28;20076;-67
2022/07/17 10:22:47;;;;;;;6.18;1.60;;;22.50;94.10;;;;;;5069662;28;20648;-68
2022/07/17 10:25:19;;;;;;;5.38;2.03;;;22.80;94.20;;;;;;5062875;28;20045;-66
2022/07/17 10:27:48;;;;;;;9.32;1.75;;;23.10;93.90;;;;;;5066351;28;20405;-68
2022/07/17 10:30:26;;;;;;;4.97;1.75;;;23.30;93.10;;;;;;5061490;28;20075;-67
2022/07/17 10:32:59;;;;;;;4.35;1.42;;;23.30;92.00;;;;;;5042815;28;20179;-66
2022/07/17 10:35:28;;;;;;;6.85;1.60;;;23.40;92.30;;;;;;5065947;28;20041;-67
2022/07/17 10:38:08;;;;;;;3.80;1.50;;;23.60;92.20;;;;;;5069544;28;20044;-67
2022/07/17 10:40:34;;;;;;;6.85;1.63;;;23.70;91.80;;;;;;5066970;28;20076;-66
2022/07/17 10:43:08;;;;;;;5.60;1.75;;;23.80;91.80;;;;;;5065223;28;20083;-68
2022/07/17 10:45:45;;;;;;;3.60;1.45;;;23.90;91.90;;;;;;5070824;28;20045;-67
2022/07/17 10:48:24;;;;;;;5.40;2.00;;;24.00;90.90;;;;;;5058194;28;20059;-68
2022/07/17 10:50:54;;;;;;;5.45;1.75;;;24.20;91.00;;;;;;5067217;28;20053;-66
2022/07/17 10:53:22;;;;;;;5.30;1.65;;;24.30;91.20;;;;;;5065774;28;20517;-67
2022/07/17 10:55:56;;;;;;;5.38;1.70;;;24.60;91.20;;;;;;5051912;28;20397;-68
2022/07/17 10:58:31;;;;;;;7.22;1.90;;;24.80;90.40;;;;;;5055896;28;20449;-67
2022/07/17 11:01:09;;;;;;;3.67;1.60;;;24.80;88.10;;;;;;5064532;28;20044;-65
2022/07/17 11:03:44;;;;;;;3.90;1.83;;;24.90;89.90;;;;;;5074835;28;20429;-68
2022/07/17 11:06:32;;;;;;;4.15;1.70;;;25.20;85.70;;;;;;5056448;28;20504;-67
2022/07/17 11:09:08;;;;;;;5.63;1.55;;;25.20;86.60;;;;;;5067290;28;20582;-68
2022/07/17 11:11:40;;;;;;;3.90;1.75;;;25.40;85.30;;;;;;5072098;28;20084;-66
2022/07/17 11:14:17;;;;;;;3.00;1.20;;;25.50;85.00;;;;;;5066282;28;20039;-67
2022/07/17 11:16:49;;;;;;;4.50;1.50;;;25.70;84.10;;;;;;5075340;28;20470;-68
2022/07/17 11:19:38;;;;;;;4.78;1.73;;;25.90;83.30;;;;;;5069379;28;20051;-67
2022/07/17 11:22:06;;;;;;;4.32;2.10;;;25.90;78.70;;;;;;5056512;28;20123;-67
2022/07/17 11:24:47;;;;;;;3.50;1.45;;;26.00;81.00;;;;;;5069960;28;20037;-66
2022/07/17 11:27:24;;;;;;;6.40;1.77;;;26.20;81.60;;;;;;5064477;28;20487;-68
2022/07/17 11:29:51;;;;;;;4.47;1.70;;;26.40;77.20;;;;;;5054055;28;20059;-68
2022/07/17 11:32:18;;;;;;;4.97;1.50;;;26.20;74.60;;;;;;5072940;28;20044;-68
2022/07/17 11:34:44;;;;;;;4.20;1.63;;;25.60;75.10;;;;;;5056039;28;20490;-67
2022/07/17 11:37:12;;;;;;;6.13;1.40;;;25.20;77.80;;;;;;5056285;28;20055;-66
2022/07/17 11:39:41;;;;;;;3.60;1.60;;;25.30;80.20;;;;;;5069909;28;20047;-67
2022/07/17 11:42:08;;;;;;;3.40;1.52;;;25.60;80.50;;;;;;5054686;28;20052;-67
2022/07/17 11:44:34;;;;;;;;;;;25.70;79.40;;;;;;5073740;28;20128;-67
2022/07/17 11:47:00;;;;;;;4.82;1.60;;;25.80;77.50;;;;;;5069871;28;20481;-67
2022/07/17 11:49:33;;;;;;;4.50;1.60;;;25.90;76.90;;;;;;5060467;28;20063;-67
2022/07/17 11:52:13;;;;;;;3.70;1.40;;;25.90;77.90;;;;;;5044176;28;20048;-67
2022/07/17 11:54:56;;;;;;;5.85;1.80;;;25.90;76.60;;;;;;5072619;28;20048;-66
2022/07/17 11:57:25;;;;;;;3.50;1.58;;;25.80;76.10;;;;;;5056235;28;20106;-67
2022/07/17 11:59:52;;;;;;;3.30;1.70;;;25.80;76.50;;;;;;5054476;28;20453;-67
2022/07/17 12:02:28;;;;;;;5.57;2.00;;;25.90;75.20;;;;;;5054430;28;20099;-67
2022/07/17 12:04:59;;;;;;;5.80;2.17;;;25.80;74.70;;;;;;5062430;28;20441;-68
2022/07/17 12:07:27;;;;;;;3.97;2.20;;;25.80;75.90;;;;;;5067700;28;20064;-67
2022/07/17 12:09:54;;;;;;;4.18;2.20;;;25.60;74.40;;;;;;5073824;28;20048;-67
2022/07/17 12:12:22;;;;;;;5.65;2.42;;;25.40;73.90;;;;;;5073411;28;20387;-67
2022/07/17 12:14:52;;;;;;;5.18;2.22;;;25.40;73.80;;;;;;5067322;28;20040;-68
2022/07/17 12:17:18;;;;;;;6.85;2.28;;;25.40;74.90;;;;;;5074076;28;20053;-67
2022/07/17 12:19:44;;;;;;;7.68;1.92;;;25.50;75.40;;;;;;5069688;28;20128;-67
2022/07/17 12:22:10;;;;;;;5.65;1.90;;;25.70;76.50;;;;;;5054172;28;20095;-66
2022/07/17 12:24:42;;;;;;;4.47;2.40;;;26.00;77.50;;;;;;5063268;28;20045;-66
2022/07/17 12:27:13;;;;;;;7.15;2.08;;;26.20;76.60;;;;;;5052863;28;20132;-67
2022/07/17 12:29:40;;;;;;;5.05;2.13;;;26.50;76.40;;;;;;5072543;28;20052;-67
2022/07/17 12:32:11;;;;;;;4.88;2.40;;;26.80;75.20;;;;;;5060721;28;20510;-67
2022/07/17 12:34:44;;;;;;;7.68;2.03;;;26.90;74.70;;;;;;5066665;28;20045;-67
2022/07/17 12:37:11;;;;;;;4.03;2.20;;;27.00;75.10;;;;;;5051686;28;20032;-67
2022/07/17 12:39:37;;;;;;;5.50;2.20;;;27.20;73.50;;;;;;5054662;28;20095;-66
2022/07/17 12:42:03;;;;;;;6.78;2.40;;;27.20;74.20;;;;;;5057064;28;20049;-66
2022/07/17 12:44:29;;;;;;;11.25;2.50;;;27.30;74.00;;;;;;5070793;28;20444;-67
2022/07/17 12:47:01;;;;;;;7.40;2.63;;;27.40;73.30;;;;;;5062498;28;20049;-67
2022/07/17 12:49:28;;;;;;;5.53;2.30;;;27.40;71.40;;;;;;5068565;28;20040;-66